This is the latest recevied weather packets stored in our database for station/object WP3OF-5. If no packets are shown the sender has not sent any weather packets the latest 10 day(s).
| Time | Temp. | Humidity | Pressure | Rain* | Wind** | Luminosity | Snow |
|---|---|---|---|---|---|---|---|
| 1777689603 | 23.33° C | 97% | 1016.2 hPa | 0 mm | - | - | - |
| 1777689299 | 23.33° C | 97% | 1016 hPa | 0 mm | - | - | - |
| 1777688997 | 23.33° C | 97% | 1015.9 hPa | 0 mm | - | - | - |
| 1777688693 | 23.33° C | 97% | 1016.1 hPa | 0 mm | - | - | - |
| 1777674149 | 24.44° C | 92% | 1014.2 hPa | 1.78 mm | - | - | - |
| 1777673846 | 24.44° C | 92% | 1014.3 hPa | 1.27 mm | - | - | - |
| 1777673543 | 24.44° C | 93% | 1014 hPa | 3.05 mm | - | - | - |
| 1777673240 | 24.44° C | 93% | 1013.9 hPa | 3.05 mm | - | - | - |
| 1777672635 | 25° C | 91% | 1014 hPa | 7.87 mm | - | - | - |
| 1777672330 | 25.56° C | 89% | 1014.2 hPa | 4.32 mm | - | - | - |
| 1777672025 | 26.11° C | 89% | 1013.7 hPa | 3.05 mm | - | - | - |
| 1777671417 | 26.67° C | 85% | 1013.8 hPa | 0 mm | - | - | - |
| 1777670810 | 26.67° C | 84% | 1013.5 hPa | 0 mm | - | - | - |
| 1777670507 | 26.67° C | 84% | 1013.7 hPa | 0 mm | - | - | - |
| 1777670204 | 26.67° C | 83% | 1013.5 hPa | 0 mm | - | - | - |
| 1777669598 | 26.67° C | 83% | 1013.4 hPa | 0 mm | - | - | - |
| 1777669295 | 26.67° C | 82% | 1013.7 hPa | 0 mm | - | - | - |
| 1777668991 | 26.67° C | 81% | 1013.8 hPa | 0 mm | - | - | - |
| 1777668689 | 26.67° C | 82% | 1013.5 hPa | 0 mm | - | - | - |
| 1777668081 | 26.67° C | 81% | 1013.6 hPa | 0 mm | - | - | - |
| 1777667778 | 26.67° C | 81% | 1013.4 hPa | 0 mm | - | - | - |
| 1777667172 | 26.67° C | 80% | 1013.7 hPa | 0 mm | - | - | - |
| 1777666869 | 27.22° C | 80% | 1013.4 hPa | 0 mm | - | - | - |
| 1777666566 | 27.22° C | 79% | 1013.3 hPa | 0 mm | - | - | - |
| 1777666262 | 27.22° C | 79% | 1013.5 hPa | 0 mm | - | - | - |
* Rain latest hour (hover to see other rain measurements)
** Current wind speed in m/s (hover to see current wind gust speed)